Terminal Aerodrome Forecast
Issued by NWS Shreveport, LA

Home | Current Version | Previous Version | Text Only | Print | Product List | Glossary On
Versions: 1 2 3 4 5 6 7 8 9 10 11 12 13 14 15 16 17 18
000
FTUS44 KSHV 181100
TAFELD
TAF
KELD 181122Z 1812/1912 00000KT P6SM BKN250
      TEMPO 1812/1814 3SM BR
     FM182000 18005KT P6SM VCTS SCT050CB BKN150
     FM182300 18004KT P6SM SCT060 BKN150
     FM190600 VRB03KT P6SM SCT040
      TEMPO 1910/1912 4SM BR SKC=

USA.gov is the U.S. government's official web portal to all federal, state and local government web resources and services.